sensor_id;sensor_type;location;lat;lon;timestamp;P1;durP1;ratioP1;P2;durP2;ratioP2
12511;SDS011;6321;53.798;10.382;2022-12-18T00:00:40;22.40;;;13.40;;
12511;SDS011;6321;53.798;10.382;2022-12-18T00:03:06;21.13;;;13.23;;
12511;SDS011;6321;53.798;10.382;2022-12-18T00:05:32;19.13;;;11.93;;
12511;SDS011;6321;53.798;10.382;2022-12-18T00:07:58;20.13;;;12.90;;
12511;SDS011;6321;53.798;10.382;2022-12-18T00:10:24;23.57;;;13.53;;
12511;SDS011;6321;53.798;10.382;2022-12-18T00:12:50;20.07;;;12.20;;
12511;SDS011;6321;53.798;10.382;2022-12-18T00:15:16;17.80;;;11.80;;
12511;SDS011;6321;53.798;10.382;2022-12-18T00:17:42;19.27;;;12.07;;
12511;SDS011;6321;53.798;10.382;2022-12-18T00:20:08;17.80;;;11.80;;
12511;SDS011;6321;53.798;10.382;2022-12-18T00:22:34;17.30;;;11.80;;
12511;SDS011;6321;53.798;10.382;2022-12-18T00:25:00;19.97;;;12.43;;
12511;SDS011;6321;53.798;10.382;2022-12-18T00:27:26;20.33;;;12.97;;
12511;SDS011;6321;53.798;10.382;2022-12-18T00:29:52;22.13;;;12.57;;
12511;SDS011;6321;53.798;10.382;2022-12-18T00:32:18;19.73;;;13.10;;
12511;SDS011;6321;53.798;10.382;2022-12-18T00:34:44;24.77;;;12.83;;
12511;SDS011;6321;53.798;10.382;2022-12-18T00:37:09;23.30;;;12.63;;
12511;SDS011;6321;53.798;10.382;2022-12-18T00:39:35;22.70;;;13.67;;
12511;SDS011;6321;53.798;10.382;2022-12-18T00:42:01;22.60;;;12.77;;
12511;SDS011;6321;53.798;10.382;2022-12-18T00:44:46;24.93;;;12.87;;
12511;SDS011;6321;53.798;10.382;2022-12-18T00:47:12;21.37;;;12.33;;
12511;SDS011;6321;53.798;10.382;2022-12-18T00:49:37;24.60;;;13.70;;
12511;SDS011;6321;53.798;10.382;2022-12-18T00:52:03;19.43;;;11.60;;
12511;SDS011;6321;53.798;10.382;2022-12-18T00:54:29;20.30;;;11.47;;
12511;SDS011;6321;53.798;10.382;2022-12-18T00:56:55;24.07;;;14.17;;
12511;SDS011;6321;53.798;10.382;2022-12-18T00:59:21;22.47;;;12.97;;
12511;SDS011;6321;53.798;10.382;2022-12-18T01:01:47;20.53;;;12.33;;
12511;SDS011;6321;53.798;10.382;2022-12-18T01:04:13;22.23;;;12.77;;
12511;SDS011;6321;53.798;10.382;2022-12-18T01:06:39;20.03;;;13.17;;
12511;SDS011;6321;53.798;10.382;2022-12-18T01:09:05;20.30;;;12.57;;
12511;SDS011;6321;53.798;10.382;2022-12-18T01:11:31;23.53;;;13.50;;
12511;SDS011;6321;53.798;10.382;2022-12-18T01:13:57;21.93;;;12.07;;
12511;SDS011;6321;53.798;10.382;2022-12-18T01:16:26;17.20;;;12.13;;
12511;SDS011;6321;53.798;10.382;2022-12-18T01:18:53;22.97;;;13.00;;
12511;SDS011;6321;53.798;10.382;2022-12-18T01:21:19;21.47;;;12.70;;
12511;SDS011;6321;53.798;10.382;2022-12-18T01:23:45;23.30;;;12.43;;
12511;SDS011;6321;53.798;10.382;2022-12-18T01:26:13;22.87;;;12.67;;
12511;SDS011;6321;53.798;10.382;2022-12-18T01:28:39;21.53;;;12.80;;
12511;SDS011;6321;53.798;10.382;2022-12-18T01:31:13;19.13;;;12.53;;
12511;SDS011;6321;53.798;10.382;2022-12-18T01:33:39;22.77;;;13.53;;
12511;SDS011;6321;53.798;10.382;2022-12-18T01:36:05;20.63;;;12.77;;
12511;SDS011;6321;53.798;10.382;2022-12-18T01:38:31;18.70;;;12.20;;
12511;SDS011;6321;53.798;10.382;2022-12-18T01:40:57;20.67;;;12.03;;
12511;SDS011;6321;53.798;10.382;2022-12-18T01:43:40;20.83;;;12.90;;
12511;SDS011;6321;53.798;10.382;2022-12-18T01:46:06;22.80;;;13.63;;
12511;SDS011;6321;53.798;10.382;2022-12-18T01:48:32;18.47;;;12.87;;
12511;SDS011;6321;53.798;10.382;2022-12-18T01:50:58;22.43;;;11.70;;
12511;SDS011;6321;53.798;10.382;2022-12-18T01:53:26;21.53;;;11.93;;
12511;SDS011;6321;53.798;10.382;2022-12-18T01:55:53;19.07;;;11.73;;
12511;SDS011;6321;53.798;10.382;2022-12-18T01:58:22;17.53;;;10.83;;
12511;SDS011;6321;53.798;10.382;2022-12-18T02:00:49;18.03;;;10.67;;
12511;SDS011;6321;53.798;10.382;2022-12-18T02:03:15;18.20;;;10.40;;
12511;SDS011;6321;53.798;10.382;2022-12-18T02:05:50;18.80;;;10.63;;
12511;SDS011;6321;53.798;10.382;2022-12-18T02:08:26;19.27;;;10.40;;
12511;SDS011;6321;53.798;10.382;2022-12-18T02:13:37;19.70;;;11.57;;
12511;SDS011;6321;53.798;10.382;2022-12-18T02:18:53;18.53;;;10.83;;
12511;SDS011;6321;53.798;10.382;2022-12-18T02:21:34;18.17;;;10.90;;
12511;SDS011;6321;53.798;10.382;2022-12-18T02:26:49;20.00;;;10.67;;
12511;SDS011;6321;53.798;10.382;2022-12-18T02:29:18;15.20;;;10.40;;
12511;SDS011;6321;53.798;10.382;2022-12-18T02:31:48;17.10;;;10.80;;
12511;SDS011;6321;53.798;10.382;2022-12-18T02:34:16;18.50;;;11.30;;
12511;SDS011;6321;53.798;10.382;2022-12-18T02:36:43;18.33;;;11.13;;
12511;SDS011;6321;53.798;10.382;2022-12-18T02:39:11;21.97;;;10.97;;
12511;SDS011;6321;53.798;10.382;2022-12-18T02:41:38;16.10;;;10.13;;
12511;SDS011;6321;53.798;10.382;2022-12-18T02:44:09;15.90;;;10.47;;
12511;SDS011;6321;53.798;10.382;2022-12-18T02:51:51;17.93;;;10.03;;
12511;SDS011;6321;53.798;10.382;2022-12-18T02:54:37;21.33;;;11.13;;
12511;SDS011;6321;53.798;10.382;2022-12-18T02:57:12;15.60;;;9.70;;
12511;SDS011;6321;53.798;10.382;2022-12-18T02:59:41;18.57;;;10.17;;
12511;SDS011;6321;53.798;10.382;2022-12-18T03:02:16;17.13;;;10.30;;
12511;SDS011;6321;53.798;10.382;2022-12-18T03:04:43;14.57;;;10.10;;
12511;SDS011;6321;53.798;10.382;2022-12-18T03:07:15;17.00;;;9.80;;
12511;SDS011;6321;53.798;10.382;2022-12-18T03:09:44;16.97;;;10.20;;
12511;SDS011;6321;53.798;10.382;2022-12-18T03:12:14;16.93;;;10.37;;
12511;SDS011;6321;53.798;10.382;2022-12-18T03:14:52;15.80;;;9.43;;
12511;SDS011;6321;53.798;10.382;2022-12-18T03:17:20;19.07;;;9.63;;
12511;SDS011;6321;53.798;10.382;2022-12-18T03:19:47;19.50;;;10.00;;
12511;SDS011;6321;53.798;10.382;2022-12-18T03:22:15;17.70;;;10.60;;
12511;SDS011;6321;53.798;10.382;2022-12-18T03:24:41;16.17;;;10.07;;
12511;SDS011;6321;53.798;10.382;2022-12-18T03:27:11;19.50;;;10.33;;
12511;SDS011;6321;53.798;10.382;2022-12-18T03:29:38;18.33;;;10.43;;
12511;SDS011;6321;53.798;10.382;2022-12-18T03:32:08;18.60;;;9.83;;
12511;SDS011;6321;53.798;10.382;2022-12-18T03:34:36;15.53;;;10.03;;
12511;SDS011;6321;53.798;10.382;2022-12-18T03:37:03;16.87;;;9.33;;
12511;SDS011;6321;53.798;10.382;2022-12-18T03:39:30;21.17;;;10.60;;
12511;SDS011;6321;53.798;10.382;2022-12-18T03:47:07;17.33;;;10.43;;
12511;SDS011;6321;53.798;10.382;2022-12-18T03:49:46;16.40;;;9.80;;
12511;SDS011;6321;53.798;10.382;2022-12-18T03:52:18;17.97;;;10.00;;
12511;SDS011;6321;53.798;10.382;2022-12-18T03:54:45;13.67;;;9.70;;
12511;SDS011;6321;53.798;10.382;2022-12-18T03:57:13;15.17;;;10.00;;
12511;SDS011;6321;53.798;10.382;2022-12-18T03:59:39;19.73;;;11.30;;
12511;SDS011;6321;53.798;10.382;2022-12-18T04:02:06;17.20;;;10.90;;
12511;SDS011;6321;53.798;10.382;2022-12-18T04:04:33;22.23;;;11.67;;
12511;SDS011;6321;53.798;10.382;2022-12-18T04:06:59;18.00;;;10.57;;
12511;SDS011;6321;53.798;10.382;2022-12-18T04:09:25;15.73;;;9.93;;
12511;SDS011;6321;53.798;10.382;2022-12-18T04:11:52;18.07;;;10.37;;
12511;SDS011;6321;53.798;10.382;2022-12-18T04:14:19;19.63;;;11.73;;
12511;SDS011;6321;53.798;10.382;2022-12-18T04:16:45;15.80;;;10.17;;
12511;SDS011;6321;53.798;10.382;2022-12-18T04:19:11;18.80;;;10.10;;
12511;SDS011;6321;53.798;10.382;2022-12-18T04:21:37;19.13;;;10.50;;
12511;SDS011;6321;53.798;10.382;2022-12-18T04:24:03;18.07;;;10.50;;
12511;SDS011;6321;53.798;10.382;2022-12-18T04:26:29;13.67;;;9.07;;
12511;SDS011;6321;53.798;10.382;2022-12-18T04:28:55;15.43;;;9.63;;
12511;SDS011;6321;53.798;10.382;2022-12-18T04:31:21;15.93;;;9.80;;
12511;SDS011;6321;53.798;10.382;2022-12-18T04:33:47;16.60;;;9.77;;
12511;SDS011;6321;53.798;10.382;2022-12-18T04:36:13;16.83;;;9.23;;
12511;SDS011;6321;53.798;10.382;2022-12-18T04:38:39;15.83;;;10.00;;
12511;SDS011;6321;53.798;10.382;2022-12-18T04:41:05;14.60;;;9.63;;
12511;SDS011;6321;53.798;10.382;2022-12-18T04:43:31;15.60;;;10.03;;
12511;SDS011;6321;53.798;10.382;2022-12-18T04:46:01;17.40;;;9.80;;
12511;SDS011;6321;53.798;10.382;2022-12-18T04:48:27;19.17;;;10.97;;
12511;SDS011;6321;53.798;10.382;2022-12-18T04:50:53;15.77;;;10.00;;
12511;SDS011;6321;53.798;10.382;2022-12-18T04:53:19;18.57;;;9.93;;
12511;SDS011;6321;53.798;10.382;2022-12-18T04:55:45;16.27;;;10.60;;
12511;SDS011;6321;53.798;10.382;2022-12-18T04:58:11;15.77;;;11.20;;
12511;SDS011;6321;53.798;10.382;2022-12-18T05:00:37;19.07;;;11.43;;
12511;SDS011;6321;53.798;10.382;2022-12-18T05:03:03;16.30;;;10.33;;
12511;SDS011;6321;53.798;10.382;2022-12-18T05:05:29;22.43;;;10.37;;
12511;SDS011;6321;53.798;10.382;2022-12-18T05:07:55;18.47;;;10.00;;
12511;SDS011;6321;53.798;10.382;2022-12-18T05:10:21;18.17;;;11.07;;
12511;SDS011;6321;53.798;10.382;2022-12-18T05:12:46;17.60;;;10.37;;
12511;SDS011;6321;53.798;10.382;2022-12-18T05:15:28;21.37;;;10.37;;
12511;SDS011;6321;53.798;10.382;2022-12-18T05:17:55;16.80;;;10.57;;
12511;SDS011;6321;53.798;10.382;2022-12-18T05:20:21;14.83;;;9.97;;
12511;SDS011;6321;53.798;10.382;2022-12-18T05:22:47;21.03;;;12.13;;
12511;SDS011;6321;53.798;10.382;2022-12-18T05:25:13;17.30;;;10.87;;
12511;SDS011;6321;53.798;10.382;2022-12-18T05:27:39;18.90;;;11.00;;
12511;SDS011;6321;53.798;10.382;2022-12-18T05:30:05;19.03;;;11.20;;
12511;SDS011;6321;53.798;10.382;2022-12-18T05:32:31;20.67;;;10.40;;
12511;SDS011;6321;53.798;10.382;2022-12-18T05:34:57;21.17;;;10.43;;
12511;SDS011;6321;53.798;10.382;2022-12-18T05:37:23;21.23;;;10.67;;
12511;SDS011;6321;53.798;10.382;2022-12-18T05:39:49;18.23;;;10.50;;
12511;SDS011;6321;53.798;10.382;2022-12-18T05:42:15;17.00;;;10.63;;
12511;SDS011;6321;53.798;10.382;2022-12-18T05:44:41;15.27;;;9.40;;
12511;SDS011;6321;53.798;10.382;2022-12-18T05:47:07;16.27;;;10.63;;
12511;SDS011;6321;53.798;10.382;2022-12-18T05:49:32;22.97;;;11.93;;
12511;SDS011;6321;53.798;10.382;2022-12-18T05:51:59;19.13;;;11.30;;
12511;SDS011;6321;53.798;10.382;2022-12-18T05:54:26;19.77;;;11.60;;
12511;SDS011;6321;53.798;10.382;2022-12-18T05:56:52;20.30;;;11.80;;
12511;SDS011;6321;53.798;10.382;2022-12-18T05:59:18;20.73;;;11.23;;
12511;SDS011;6321;53.798;10.382;2022-12-18T06:01:44;22.27;;;12.57;;
12511;SDS011;6321;53.798;10.382;2022-12-18T06:04:10;21.20;;;12.67;;
12511;SDS011;6321;53.798;10.382;2022-12-18T06:06:36;22.60;;;12.90;;
12511;SDS011;6321;53.798;10.382;2022-12-18T06:09:02;22.93;;;12.87;;
12511;SDS011;6321;53.798;10.382;2022-12-18T06:11:33;19.30;;;12.07;;
12511;SDS011;6321;53.798;10.382;2022-12-18T06:13:59;20.67;;;12.67;;
12511;SDS011;6321;53.798;10.382;2022-12-18T06:16:26;19.27;;;12.20;;
12511;SDS011;6321;53.798;10.382;2022-12-18T06:18:52;20.70;;;11.43;;
12511;SDS011;6321;53.798;10.382;2022-12-18T06:21:18;25.73;;;12.70;;
12511;SDS011;6321;53.798;10.382;2022-12-18T06:23:44;26.13;;;13.50;;
12511;SDS011;6321;53.798;10.382;2022-12-18T06:26:11;20.63;;;11.63;;
12511;SDS011;6321;53.798;10.382;2022-12-18T06:28:37;21.93;;;12.83;;
12511;SDS011;6321;53.798;10.382;2022-12-18T06:31:03;19.60;;;12.97;;
12511;SDS011;6321;53.798;10.382;2022-12-18T06:33:30;18.93;;;11.60;;
12511;SDS011;6321;53.798;10.382;2022-12-18T06:35:59;22.40;;;13.13;;
12511;SDS011;6321;53.798;10.382;2022-12-18T06:38:26;18.37;;;11.77;;
12511;SDS011;6321;53.798;10.382;2022-12-18T06:40:52;18.17;;;12.23;;
12511;SDS011;6321;53.798;10.382;2022-12-18T06:43:18;19.67;;;11.40;;
12511;SDS011;6321;53.798;10.382;2022-12-18T06:45:44;23.10;;;12.83;;
12511;SDS011;6321;53.798;10.382;2022-12-18T06:48:11;20.17;;;11.33;;
12511;SDS011;6321;53.798;10.382;2022-12-18T06:50:37;21.57;;;12.13;;
12511;SDS011;6321;53.798;10.382;2022-12-18T06:53:03;23.27;;;12.10;;
12511;SDS011;6321;53.798;10.382;2022-12-18T06:55:28;25.90;;;12.83;;
12511;SDS011;6321;53.798;10.382;2022-12-18T06:57:54;19.07;;;13.23;;
12511;SDS011;6321;53.798;10.382;2022-12-18T07:00:20;21.47;;;12.43;;
12511;SDS011;6321;53.798;10.382;2022-12-18T07:02:46;19.80;;;12.13;;
12511;SDS011;6321;53.798;10.382;2022-12-18T07:05:12;20.93;;;12.97;;
12511;SDS011;6321;53.798;10.382;2022-12-18T07:07:39;19.73;;;12.70;;
12511;SDS011;6321;53.798;10.382;2022-12-18T07:10:05;20.90;;;12.17;;
12511;SDS011;6321;53.798;10.382;2022-12-18T07:12:31;24.80;;;13.07;;
12511;SDS011;6321;53.798;10.382;2022-12-18T07:14:57;33.30;;;16.13;;
12511;SDS011;6321;53.798;10.382;2022-12-18T07:17:23;24.97;;;14.47;;
12511;SDS011;6321;53.798;10.382;2022-12-18T07:19:49;24.33;;;13.60;;
12511;SDS011;6321;53.798;10.382;2022-12-18T07:22:15;27.97;;;15.40;;
12511;SDS011;6321;53.798;10.382;2022-12-18T07:24:41;25.83;;;14.40;;
12511;SDS011;6321;53.798;10.382;2022-12-18T07:27:07;22.97;;;14.10;;
12511;SDS011;6321;53.798;10.382;2022-12-18T07:29:33;24.93;;;14.43;;
12511;SDS011;6321;53.798;10.382;2022-12-18T07:31:59;23.70;;;13.20;;
12511;SDS011;6321;53.798;10.382;2022-12-18T07:34:24;25.43;;;14.07;;
12511;SDS011;6321;53.798;10.382;2022-12-18T07:36:50;22.07;;;13.07;;
12511;SDS011;6321;53.798;10.382;2022-12-18T07:39:16;27.13;;;13.00;;
12511;SDS011;6321;53.798;10.382;2022-12-18T07:41:42;25.73;;;13.57;;
12511;SDS011;6321;53.798;10.382;2022-12-18T07:44:11;23.83;;;13.47;;
12511;SDS011;6321;53.798;10.382;2022-12-18T07:46:37;21.80;;;13.40;;
12511;SDS011;6321;53.798;10.382;2022-12-18T07:49:03;26.60;;;15.03;;
12511;SDS011;6321;53.798;10.382;2022-12-18T07:51:29;24.07;;;13.53;;
12511;SDS011;6321;53.798;10.382;2022-12-18T07:53:56;22.40;;;12.93;;
12511;SDS011;6321;53.798;10.382;2022-12-18T07:56:22;22.03;;;13.70;;
12511;SDS011;6321;53.798;10.382;2022-12-18T07:58:48;26.43;;;13.90;;
12511;SDS011;6321;53.798;10.382;2022-12-18T08:01:14;20.90;;;11.83;;
12511;SDS011;6321;53.798;10.382;2022-12-18T08:03:40;23.23;;;13.67;;
12511;SDS011;6321;53.798;10.382;2022-12-18T08:06:07;24.77;;;13.63;;
12511;SDS011;6321;53.798;10.382;2022-12-18T08:08:33;27.63;;;14.20;;
12511;SDS011;6321;53.798;10.382;2022-12-18T08:11:00;25.90;;;13.53;;
12511;SDS011;6321;53.798;10.382;2022-12-18T08:13:26;21.70;;;13.03;;
12511;SDS011;6321;53.798;10.382;2022-12-18T08:15:56;22.47;;;13.67;;
12511;SDS011;6321;53.798;10.382;2022-12-18T08:18:22;26.97;;;15.40;;
12511;SDS011;6321;53.798;10.382;2022-12-18T08:20:49;24.13;;;14.00;;
12511;SDS011;6321;53.798;10.382;2022-12-18T08:23:15;29.30;;;13.67;;
12511;SDS011;6321;53.798;10.382;2022-12-18T08:25:41;33.23;;;14.37;;
12511;SDS011;6321;53.798;10.382;2022-12-18T08:28:07;31.00;;;15.37;;
12511;SDS011;6321;53.798;10.382;2022-12-18T08:30:32;24.83;;;13.43;;
12511;SDS011;6321;53.798;10.382;2022-12-18T08:32:58;27.63;;;14.37;;
12511;SDS011;6321;53.798;10.382;2022-12-18T08:35:24;28.47;;;14.57;;
12511;SDS011;6321;53.798;10.382;2022-12-18T08:37:50;29.97;;;15.30;;
12511;SDS011;6321;53.798;10.382;2022-12-18T08:40:16;27.03;;;15.30;;
12511;SDS011;6321;53.798;10.382;2022-12-18T08:42:42;32.83;;;15.27;;
12511;SDS011;6321;53.798;10.382;2022-12-18T08:45:27;26.40;;;14.63;;
12511;SDS011;6321;53.798;10.382;2022-12-18T08:47:53;25.27;;;13.97;;
12511;SDS011;6321;53.798;10.382;2022-12-18T08:50:19;28.47;;;14.57;;
12511;SDS011;6321;53.798;10.382;2022-12-18T08:52:45;29.00;;;14.23;;
12511;SDS011;6321;53.798;10.382;2022-12-18T08:55:11;28.03;;;14.47;;
12511;SDS011;6321;53.798;10.382;2022-12-18T08:57:37;28.30;;;13.97;;
12511;SDS011;6321;53.798;10.382;2022-12-18T09:00:03;24.00;;;14.00;;
12511;SDS011;6321;53.798;10.382;2022-12-18T09:02:30;29.70;;;14.47;;
12511;SDS011;6321;53.798;10.382;2022-12-18T09:04:56;32.17;;;15.00;;
12511;SDS011;6321;53.798;10.382;2022-12-18T09:07:22;32.57;;;15.37;;
12511;SDS011;6321;53.798;10.382;2022-12-18T09:09:47;33.90;;;15.87;;
12511;SDS011;6321;53.798;10.382;2022-12-18T09:12:13;30.97;;;15.17;;
12511;SDS011;6321;53.798;10.382;2022-12-18T09:14:39;33.17;;;16.17;;
12511;SDS011;6321;53.798;10.382;2022-12-18T09:17:05;28.17;;;14.37;;
12511;SDS011;6321;53.798;10.382;2022-12-18T09:19:31;30.10;;;15.00;;
12511;SDS011;6321;53.798;10.382;2022-12-18T09:21:57;33.57;;;14.80;;
12511;SDS011;6321;53.798;10.382;2022-12-18T09:24:23;23.57;;;13.53;;
12511;SDS011;6321;53.798;10.382;2022-12-18T09:26:52;27.43;;;14.47;;
12511;SDS011;6321;53.798;10.382;2022-12-18T09:29:18;27.63;;;14.50;;
12511;SDS011;6321;53.798;10.382;2022-12-18T09:31:44;29.80;;;14.47;;
12511;SDS011;6321;53.798;10.382;2022-12-18T09:34:11;22.10;;;12.93;;
12511;SDS011;6321;53.798;10.382;2022-12-18T09:36:37;29.70;;;14.30;;
12511;SDS011;6321;53.798;10.382;2022-12-18T09:39:03;24.00;;;14.20;;
12511;SDS011;6321;53.798;10.382;2022-12-18T09:41:45;25.57;;;14.47;;
12511;SDS011;6321;53.798;10.382;2022-12-18T09:46:49;29.97;;;14.40;;
12511;SDS011;6321;53.798;10.382;2022-12-18T09:49:18;33.27;;;14.93;;
12511;SDS011;6321;53.798;10.382;2022-12-18T09:54:16;26.13;;;13.20;;
12511;SDS011;6321;53.798;10.382;2022-12-18T09:56:44;24.67;;;13.60;;
12511;SDS011;6321;53.798;10.382;2022-12-18T09:59:18;29.77;;;14.20;;
12511;SDS011;6321;53.798;10.382;2022-12-18T10:01:46;26.73;;;12.87;;
12511;SDS011;6321;53.798;10.382;2022-12-18T10:04:12;29.67;;;14.10;;
12511;SDS011;6321;53.798;10.382;2022-12-18T10:19:33;30.57;;;13.43;;
12511;SDS011;6321;53.798;10.382;2022-12-18T10:24:33;19.87;;;10.90;;
12511;SDS011;6321;53.798;10.382;2022-12-18T10:27:09;28.00;;;14.00;;
12511;SDS011;6321;53.798;10.382;2022-12-18T10:29:36;23.53;;;12.10;;
12511;SDS011;6321;53.798;10.382;2022-12-18T10:32:02;25.07;;;13.47;;
12511;SDS011;6321;53.798;10.382;2022-12-18T10:34:28;27.17;;;14.70;;
12511;SDS011;6321;53.798;10.382;2022-12-18T10:36:54;25.40;;;13.30;;
12511;SDS011;6321;53.798;10.382;2022-12-18T10:39:22;29.97;;;14.30;;
12511;SDS011;6321;53.798;10.382;2022-12-18T10:41:48;31.40;;;13.93;;
12511;SDS011;6321;53.798;10.382;2022-12-18T10:44:19;29.00;;;14.23;;
12511;SDS011;6321;53.798;10.382;2022-12-18T10:46:54;33.30;;;13.80;;
12511;SDS011;6321;53.798;10.382;2022-12-18T10:49:22;27.20;;;14.27;;
12511;SDS011;6321;53.798;10.382;2022-12-18T10:51:48;25.53;;;14.47;;
12511;SDS011;6321;53.798;10.382;2022-12-18T10:54:21;26.57;;;14.50;;
12511;SDS011;6321;53.798;10.382;2022-12-18T10:56:48;28.70;;;14.77;;
12511;SDS011;6321;53.798;10.382;2022-12-18T10:59:15;29.00;;;13.60;;
12511;SDS011;6321;53.798;10.382;2022-12-18T11:04:16;29.17;;;14.30;;
12511;SDS011;6321;53.798;10.382;2022-12-18T11:09:41;24.83;;;13.67;;
12511;SDS011;6321;53.798;10.382;2022-12-18T11:14:42;29.10;;;14.73;;
12511;SDS011;6321;53.798;10.382;2022-12-18T11:17:26;27.47;;;14.10;;
12511;SDS011;6321;53.798;10.382;2022-12-18T11:19:55;28.77;;;14.70;;
12511;SDS011;6321;53.798;10.382;2022-12-18T11:25:01;29.73;;;15.93;;
12511;SDS011;6321;53.798;10.382;2022-12-18T11:27:28;31.33;;;14.50;;
12511;SDS011;6321;53.798;10.382;2022-12-18T11:30:06;31.10;;;15.77;;
12511;SDS011;6321;53.798;10.382;2022-12-18T11:32:43;35.87;;;16.10;;
12511;SDS011;6321;53.798;10.382;2022-12-18T11:37:58;29.07;;;15.93;;
12511;SDS011;6321;53.798;10.382;2022-12-18T11:40:33;30.77;;;16.10;;
12511;SDS011;6321;53.798;10.382;2022-12-18T11:45:30;35.10;;;16.33;;
12511;SDS011;6321;53.798;10.382;2022-12-18T11:48:01;33.63;;;15.20;;
12511;SDS011;6321;53.798;10.382;2022-12-18T11:50:37;36.10;;;16.57;;
12511;SDS011;6321;53.798;10.382;2022-12-18T11:53:08;31.80;;;15.10;;
12511;SDS011;6321;53.798;10.382;2022-12-18T12:03:39;29.00;;;14.60;;
12511;SDS011;6321;53.798;10.382;2022-12-18T12:06:20;27.00;;;14.10;;
12511;SDS011;6321;53.798;10.382;2022-12-18T12:14:09;35.97;;;16.63;;
12511;SDS011;6321;53.798;10.382;2022-12-18T12:19:22;31.73;;;15.33;;
12511;SDS011;6321;53.798;10.382;2022-12-18T12:24:26;29.77;;;14.40;;
12511;SDS011;6321;53.798;10.382;2022-12-18T12:27:12;29.63;;;15.10;;
12511;SDS011;6321;53.798;10.382;2022-12-18T12:39:56;32.83;;;15.40;;
12511;SDS011;6321;53.798;10.382;2022-12-18T12:42:26;29.20;;;13.00;;
12511;SDS011;6321;53.798;10.382;2022-12-18T12:45:16;27.73;;;14.33;;
12511;SDS011;6321;53.798;10.382;2022-12-18T12:47:44;26.97;;;13.83;;
12511;SDS011;6321;53.798;10.382;2022-12-18T12:50:13;27.97;;;14.63;;
12511;SDS011;6321;53.798;10.382;2022-12-18T12:52:41;27.53;;;12.77;;
12511;SDS011;6321;53.798;10.382;2022-12-18T13:00:16;23.60;;;11.37;;
12511;SDS011;6321;53.798;10.382;2022-12-18T13:02:59;24.60;;;12.37;;
12511;SDS011;6321;53.798;10.382;2022-12-18T13:05:46;30.30;;;13.30;;
12511;SDS011;6321;53.798;10.382;2022-12-18T13:08:27;24.87;;;13.30;;
12511;SDS011;6321;53.798;10.382;2022-12-18T13:10:54;23.87;;;13.03;;
12511;SDS011;6321;53.798;10.382;2022-12-18T13:13:55;23.00;;;12.00;;
12511;SDS011;6321;53.798;10.382;2022-12-18T13:16:25;32.93;;;14.57;;
12511;SDS011;6321;53.798;10.382;2022-12-18T13:18:53;25.37;;;12.37;;
12511;SDS011;6321;53.798;10.382;2022-12-18T13:21:23;23.67;;;11.70;;
12511;SDS011;6321;53.798;10.382;2022-12-18T13:23:51;28.13;;;13.43;;
12511;SDS011;6321;53.798;10.382;2022-12-18T13:31:10;28.97;;;13.70;;
12511;SDS011;6321;53.798;10.382;2022-12-18T13:33:37;30.57;;;13.73;;
12511;SDS011;6321;53.798;10.382;2022-12-18T13:41:33;30.47;;;13.10;;
12511;SDS011;6321;53.798;10.382;2022-12-18T13:46:47;32.50;;;14.97;;
12511;SDS011;6321;53.798;10.382;2022-12-18T13:51:40;27.83;;;13.40;;
12511;SDS011;6321;53.798;10.382;2022-12-18T13:54:20;30.90;;;15.47;;
12511;SDS011;6321;53.798;10.382;2022-12-18T13:56:47;27.93;;;13.30;;
12511;SDS011;6321;53.798;10.382;2022-12-18T13:59:23;32.57;;;14.83;;
12511;SDS011;6321;53.798;10.382;2022-12-18T14:06:45;29.13;;;13.30;;
12511;SDS011;6321;53.798;10.382;2022-12-18T14:09:13;33.03;;;15.30;;
12511;SDS011;6321;53.798;10.382;2022-12-18T14:11:39;33.00;;;15.20;;
12511;SDS011;6321;53.798;10.382;2022-12-18T14:14:06;31.00;;;15.13;;
12511;SDS011;6321;53.798;10.382;2022-12-18T14:16:32;37.37;;;15.17;;
12511;SDS011;6321;53.798;10.382;2022-12-18T14:18:59;28.70;;;13.90;;
12511;SDS011;6321;53.798;10.382;2022-12-18T14:21:26;29.80;;;14.53;;
12511;SDS011;6321;53.798;10.382;2022-12-18T14:24:03;37.47;;;18.57;;
12511;SDS011;6321;53.798;10.382;2022-12-18T14:26:30;35.37;;;15.47;;
12511;SDS011;6321;53.798;10.382;2022-12-18T14:28:58;39.73;;;17.30;;
12511;SDS011;6321;53.798;10.382;2022-12-18T14:31:29;39.37;;;16.43;;
12511;SDS011;6321;53.798;10.382;2022-12-18T14:33:56;39.80;;;17.53;;
12511;SDS011;6321;53.798;10.382;2022-12-18T14:36:26;38.37;;;18.37;;
12511;SDS011;6321;53.798;10.382;2022-12-18T14:38:53;40.33;;;18.20;;
12511;SDS011;6321;53.798;10.382;2022-12-18T14:41:20;33.97;;;15.73;;
12511;SDS011;6321;53.798;10.382;2022-12-18T14:43:48;36.97;;;16.63;;
12511;SDS011;6321;53.798;10.382;2022-12-18T14:48:58;36.33;;;15.67;;
12511;SDS011;6321;53.798;10.382;2022-12-18T14:51:25;35.73;;;15.03;;
12511;SDS011;6321;53.798;10.382;2022-12-18T14:53:55;33.00;;;15.13;;
12511;SDS011;6321;53.798;10.382;2022-12-18T14:56:23;41.07;;;15.90;;
12511;SDS011;6321;53.798;10.382;2022-12-18T14:58:53;37.13;;;17.70;;
12511;SDS011;6321;53.798;10.382;2022-12-18T15:01:21;36.83;;;15.60;;
12511;SDS011;6321;53.798;10.382;2022-12-18T15:03:47;36.33;;;16.43;;
12511;SDS011;6321;53.798;10.382;2022-12-18T15:09:22;37.33;;;16.20;;
12511;SDS011;6321;53.798;10.382;2022-12-18T15:11:48;40.57;;;18.40;;
12511;SDS011;6321;53.798;10.382;2022-12-18T15:14:21;32.47;;;15.20;;
12511;SDS011;6321;53.798;10.382;2022-12-18T15:16:51;35.70;;;15.77;;
12511;SDS011;6321;53.798;10.382;2022-12-18T15:19:18;38.00;;;16.60;;
12511;SDS011;6321;53.798;10.382;2022-12-18T15:21:45;36.13;;;15.63;;
12511;SDS011;6321;53.798;10.382;2022-12-18T15:24:18;33.47;;;15.67;;
12511;SDS011;6321;53.798;10.382;2022-12-18T15:26:46;37.40;;;17.97;;
12511;SDS011;6321;53.798;10.382;2022-12-18T15:29:19;30.30;;;14.77;;
12511;SDS011;6321;53.798;10.382;2022-12-18T15:32:03;31.43;;;14.93;;
12511;SDS011;6321;53.798;10.382;2022-12-18T15:34:29;37.73;;;16.10;;
12511;SDS011;6321;53.798;10.382;2022-12-18T15:36:56;36.67;;;15.20;;
12511;SDS011;6321;53.798;10.382;2022-12-18T15:39:22;39.17;;;17.10;;
12511;SDS011;6321;53.798;10.382;2022-12-18T15:41:48;39.83;;;17.40;;
12511;SDS011;6321;53.798;10.382;2022-12-18T15:44:32;32.50;;;15.10;;
12511;SDS011;6321;53.798;10.382;2022-12-18T15:46:59;33.80;;;16.17;;
12511;SDS011;6321;53.798;10.382;2022-12-18T15:49:25;40.13;;;15.60;;
12511;SDS011;6321;53.798;10.382;2022-12-18T15:51:54;41.73;;;16.10;;
12511;SDS011;6321;53.798;10.382;2022-12-18T15:54:22;40.47;;;16.57;;
12511;SDS011;6321;53.798;10.382;2022-12-18T15:57:09;37.27;;;17.17;;
12511;SDS011;6321;53.798;10.382;2022-12-18T15:59:54;29.63;;;12.90;;
12511;SDS011;6321;53.798;10.382;2022-12-18T16:02:22;26.37;;;12.83;;
12511;SDS011;6321;53.798;10.382;2022-12-18T16:04:49;37.57;;;17.20;;
12511;SDS011;6321;53.798;10.382;2022-12-18T16:07:16;37.70;;;17.27;;
12511;SDS011;6321;53.798;10.382;2022-12-18T16:09:42;38.83;;;17.30;;
12511;SDS011;6321;53.798;10.382;2022-12-18T16:12:26;31.63;;;15.37;;
12511;SDS011;6321;53.798;10.382;2022-12-18T16:14:52;37.60;;;16.07;;
12511;SDS011;6321;53.798;10.382;2022-12-18T16:17:17;37.00;;;16.37;;
12511;SDS011;6321;53.798;10.382;2022-12-18T16:19:43;39.90;;;18.63;;
12511;SDS011;6321;53.798;10.382;2022-12-18T16:22:15;40.90;;;19.17;;
12511;SDS011;6321;53.798;10.382;2022-12-18T16:24:43;32.20;;;15.40;;